createdAt,value
2023-05-01T00:04:35.429Z,65.74
2023-05-01T00:09:38.199Z,66.58
2023-05-01T00:14:41.949Z,66.94
2023-05-01T00:19:44.750Z,67.55
2023-05-01T00:24:49.177Z,68.29
2023-05-01T00:29:51.936Z,68.40
2023-05-01T00:34:54.882Z,68.56
2023-05-01T00:39:58.044Z,68.70
2023-05-01T00:45:01.529Z,68.94
2023-05-01T00:50:05.929Z,69.13
2023-05-01T00:55:08.910Z,69.28
2023-05-01T01:00:12.694Z,69.00
2023-05-01T01:05:15.734Z,68.63
2023-05-01T01:10:37.655Z,68.95
2023-05-01T01:15:50.641Z,69.36
2023-05-01T01:21:06.996Z,69.30
2023-05-01T01:26:48.297Z,68.98
2023-05-01T01:32:03.989Z,68.95
2023-05-01T01:37:32.884Z,69.54
2023-05-01T01:43:02.567Z,69.64
2023-05-01T01:48:08.687Z,69.80
2023-05-01T01:53:15.283Z,69.88
2023-05-01T01:58:21.615Z,69.89
2023-05-01T02:03:25.488Z,69.68
2023-05-01T02:08:31.365Z,69.60
2023-05-01T02:13:37.660Z,69.35
2023-05-01T02:18:41.595Z,69.23
2023-05-01T02:23:44.324Z,68.67
2023-05-01T02:28:47.045Z,68.90
2023-05-01T02:33:49.770Z,69.59
2023-05-01T02:38:52.614Z,69.40
2023-05-01T02:44:06.048Z,69.81
2023-05-01T02:49:10.461Z,70.31
2023-05-01T02:54:14.240Z,70.72
2023-05-01T02:59:16.902Z,71.12
2023-05-01T03:04:19.595Z,71.47
2023-05-01T03:09:22.486Z,71.44
2023-05-01T03:14:25.254Z,71.33
2023-05-01T03:19:28.353Z,71.17
2023-05-01T03:24:31.025Z,71.38
2023-05-01T03:29:34.573Z,71.37
2023-05-01T03:34:37.360Z,70.91
2023-05-01T03:39:40.357Z,71.15
2023-05-01T03:44:43.085Z,71.57
2023-05-01T03:49:45.909Z,71.56
2023-05-01T03:54:50.362Z,71.89
2023-05-01T03:59:54.507Z,72.13
2023-05-01T04:04:57.708Z,72.66
2023-05-01T04:10:00.429Z,73.00
2023-05-01T04:15:06.302Z,72.95
2023-05-01T04:20:09.663Z,72.78
2023-05-01T04:25:12.354Z,73.11
2023-05-01T04:30:15.134Z,72.82
2023-05-01T04:35:17.886Z,72.98
2023-05-01T04:40:20.665Z,72.67
2023-05-01T04:45:23.367Z,72.74
2023-05-01T04:50:26.832Z,72.75
2023-05-01T04:55:31.105Z,72.85
2023-05-01T05:00:35.107Z,72.92
2023-05-01T05:05:37.982Z,73.27
2023-05-01T05:10:40.914Z,72.98
2023-05-01T05:15:43.988Z,72.93
2023-05-01T05:20:46.747Z,72.67
2023-05-01T05:25:49.576Z,72.02
2023-05-01T05:30:52.452Z,71.90
2023-05-01T05:35:55.147Z,71.79
2023-05-01T05:40:59.484Z,71.33
2023-05-01T05:46:02.402Z,70.16
2023-05-01T05:51:06.077Z,69.04
2023-05-01T05:56:08.797Z,68.15
2023-05-01T06:01:12.478Z,67.84
2023-05-01T06:06:15.296Z,67.36
2023-05-01T06:11:18.178Z,66.98
2023-05-01T06:16:21.048Z,66.36
2023-05-01T06:21:23.721Z,65.41
2023-05-01T06:26:28.240Z,64.32
2023-05-01T06:31:31.032Z,63.08
2023-05-01T06:36:33.795Z,62.16
2023-05-01T06:41:36.523Z,61.34
2023-05-01T06:46:39.369Z,60.35
2023-05-01T06:51:42.212Z,59.67
2023-05-01T06:56:45.416Z,58.79
2023-05-01T07:01:48.108Z,57.41
2023-05-01T07:06:50.992Z,56.18
2023-05-01T07:11:53.817Z,55.02
2023-05-01T07:16:56.736Z,54.70
2023-05-01T07:21:59.856Z,52.75
2023-05-01T07:27:02.567Z,52.78
2023-05-01T07:32:07.045Z,52.47
2023-05-01T07:37:10.226Z,51.38
2023-05-01T07:42:13.034Z,51.14
2023-05-01T07:47:15.717Z,51.38
2023-05-01T07:52:18.397Z,50.37
2023-05-01T07:57:23.721Z,49.45
2023-05-01T08:02:27.455Z,49.30
2023-05-01T08:07:31.991Z,48.29
2023-05-01T08:12:34.832Z,48.16
2023-05-01T08:17:37.678Z,47.98
2023-05-01T08:22:40.465Z,47.67
2023-05-01T08:27:43.461Z,47.26
2023-05-01T08:32:46.222Z,46.56
2023-05-01T08:37:51.315Z,46.44
2023-05-01T08:42:55.774Z,46.10
2023-05-01T08:47:59.352Z,44.26
2023-05-01T08:53:04.239Z,43.56
2023-05-01T08:58:09.439Z,43.57
2023-05-01T09:03:16.088Z,42.87
2023-05-01T09:08:18.968Z,43.13
2023-05-01T09:13:22.113Z,41.87
2023-05-01T09:18:25.489Z,41.67
2023-05-01T09:23:28.434Z,41.90
2023-05-01T09:28:42.051Z,42.22
2023-05-01T09:33:58.000Z,41.77
2023-05-01T09:39:02.394Z,40.87
2023-05-01T09:44:05.482Z,40.53
2023-05-01T09:49:08.145Z,39.26
2023-05-01T09:54:21.157Z,39.18
2023-05-01T09:59:25.389Z,38.56
2023-05-01T10:04:35.277Z,37.68
2023-05-01T10:09:37.992Z,36.82
2023-05-01T10:15:05.515Z,36.02
2023-05-01T10:20:13.737Z,35.96
2023-05-01T10:25:18.061Z,35.73
2023-05-01T10:30:22.447Z,35.17
2023-05-01T10:35:33.704Z,35.08
2023-05-01T10:40:39.532Z,35.42
2023-05-01T10:45:47.110Z,34.28
2023-05-01T10:51:11.446Z,34.02
2023-05-01T10:56:27.248Z,34.19
2023-05-01T11:01:47.824Z,32.76
2023-05-01T11:07:07.999Z,33.05
2023-05-01T11:12:13.996Z,33.09
2023-05-01T11:17:39.541Z,33.22
2023-05-01T11:22:47.296Z,32.11
2023-05-01T11:27:53.437Z,31.97
2023-05-01T11:32:56.227Z,32.02
2023-05-01T11:37:59.228Z,31.13
2023-05-01T11:43:03.253Z,30.53
2023-05-01T11:48:16.255Z,31.11
2023-05-01T11:53:19.070Z,30.04
2023-05-01T11:58:34.649Z,29.54
2023-05-01T12:03:44.868Z,29.23
2023-05-01T12:08:51.420Z,28.24
2023-05-01T12:13:54.823Z,28.29
2023-05-01T12:18:58.262Z,28.59
2023-05-01T12:24:16.505Z,28.38
2023-05-01T12:29:19.205Z,25.82
2023-05-01T12:34:30.103Z,26.97
2023-05-01T12:39:42.708Z,27.51
2023-05-01T12:44:45.689Z,27.36
2023-05-01T12:49:48.513Z,27.20
2023-05-01T12:54:51.732Z,26.63
2023-05-01T13:00:02.989Z,26.62
2023-05-01T13:05:10.240Z,27.09
2023-05-01T13:10:14.431Z,28.13
2023-05-01T13:15:21.984Z,27.49
2023-05-01T13:20:28.373Z,27.41
2023-05-01T13:25:31.124Z,28.08
2023-05-01T13:30:34.535Z,29.00
2023-05-01T13:35:40.078Z,28.84
2023-05-01T13:40:42.845Z,28.36
2023-05-01T13:45:47.467Z,28.82
2023-05-01T13:50:50.557Z,28.84
2023-05-01T13:55:53.232Z,29.21
2023-05-01T14:00:56.042Z,29.13
2023-05-01T14:05:58.743Z,29.19
2023-05-01T14:11:08.359Z,29.47
2023-05-01T14:16:22.169Z,29.12
2023-05-01T14:21:30.108Z,29.03
2023-05-01T14:26:35.206Z,28.93
2023-05-01T14:31:39.411Z,28.12
2023-05-01T14:36:43.612Z,27.14
2023-05-01T14:41:47.582Z,27.38
2023-05-01T14:46:51.800Z,26.81
2023-05-01T14:51:56.123Z,26.47
2023-05-01T14:56:59.015Z,26.93
2023-05-01T15:02:02.514Z,26.78
2023-05-01T15:07:05.252Z,26.42
2023-05-01T15:12:09.205Z,26.03
2023-05-01T15:17:11.896Z,25.82
2023-05-01T15:22:14.617Z,25.18
2023-05-01T15:27:18.026Z,25.27
2023-05-01T15:32:21.019Z,24.63
2023-05-01T15:37:24.170Z,24.86
2023-05-01T15:42:26.963Z,25.17
2023-05-01T15:47:29.759Z,24.93
2023-05-01T15:52:32.534Z,24.82
2023-05-01T15:57:35.803Z,24.58
2023-05-01T16:02:38.664Z,24.61
2023-05-01T16:07:41.465Z,25.24
2023-05-01T16:12:44.195Z,25.13
2023-05-01T16:17:47.730Z,25.41
2023-05-01T16:22:51.436Z,25.59
2023-05-01T16:27:54.131Z,25.74
2023-05-01T16:32:56.881Z,25.92
2023-05-01T16:38:00.062Z,25.99
2023-05-01T16:43:05.451Z,26.31
2023-05-01T16:48:08.218Z,26.60
2023-05-01T16:53:11.063Z,27.30
2023-05-01T16:58:13.985Z,27.94
2023-05-01T17:03:17.102Z,28.21
2023-05-01T17:08:20.293Z,28.49
2023-05-01T17:13:23.034Z,28.99
2023-05-01T17:18:25.948Z,29.47
2023-05-01T17:23:29.102Z,29.76
2023-05-01T17:28:31.847Z,30.17
2023-05-01T17:33:34.611Z,30.67
2023-05-01T17:38:37.593Z,31.13
2023-05-01T17:43:40.302Z,31.48
2023-05-01T17:48:43.077Z,31.91
2023-05-01T17:53:45.877Z,32.26
2023-05-01T17:58:48.832Z,32.60
2023-05-01T18:03:51.676Z,33.00
2023-05-01T18:08:54.563Z,33.43
2023-05-01T18:13:57.318Z,33.64
2023-05-01T18:19:00.006Z,33.94
2023-05-01T18:24:03.338Z,34.01
2023-05-01T18:29:06.035Z,34.45
2023-05-01T18:34:10.292Z,34.64
2023-05-01T18:39:13.241Z,34.96
2023-05-01T18:44:17.349Z,35.12
2023-05-01T18:49:23.642Z,35.04
2023-05-01T18:54:26.436Z,35.81
2023-05-01T18:59:31.160Z,35.78
2023-05-01T19:04:49.262Z,36.24
2023-05-01T19:09:58.800Z,36.66
2023-05-01T19:15:01.875Z,37.16
2023-05-01T19:20:07.501Z,37.40
2023-05-01T19:25:10.203Z,37.99
2023-05-01T19:30:12.966Z,37.99
2023-05-01T19:35:16.300Z,38.50
2023-05-01T19:40:19.021Z,38.90
2023-05-01T19:45:21.770Z,39.24
2023-05-01T19:50:25.032Z,39.93
2023-05-01T19:55:29.324Z,40.09
2023-05-01T20:00:32.110Z,40.11
2023-05-01T20:05:34.879Z,40.37
2023-05-01T20:10:37.579Z,40.48
2023-05-01T20:15:40.533Z,40.68
2023-05-01T20:20:43.289Z,41.15
2023-05-01T20:25:49.058Z,41.69
2023-05-01T20:30:51.885Z,42.04
2023-05-01T20:35:54.576Z,42.30
2023-05-01T20:40:57.295Z,42.48
2023-05-01T20:46:00.060Z,42.98
2023-05-01T20:51:02.822Z,43.18
2023-05-01T20:56:05.898Z,43.42
2023-05-01T21:01:09.254Z,43.65
2023-05-01T21:06:14.353Z,43.88
2023-05-01T21:11:17.139Z,44.10
2023-05-01T21:16:20.935Z,44.56
2023-05-01T21:21:25.069Z,44.50
2023-05-01T21:26:28.823Z,44.76
2023-05-01T21:31:36.069Z,44.68
2023-05-01T21:36:46.767Z,44.90
2023-05-01T21:41:49.575Z,45.18
2023-05-01T21:46:55.163Z,45.14
2023-05-01T21:52:19.778Z,45.51
2023-05-01T21:57:23.725Z,45.86
2023-05-01T22:02:30.843Z,46.03
2023-05-01T22:07:34.197Z,46.26
2023-05-01T22:12:37.507Z,46.64
2023-05-01T22:17:41.277Z,46.43
2023-05-01T22:22:44.040Z,46.91
2023-05-01T22:27:46.837Z,47.12
2023-05-01T22:32:50.051Z,47.37
2023-05-01T22:37:52.878Z,48.01
2023-05-01T22:42:55.602Z,48.05
2023-05-01T22:47:58.360Z,48.11
2023-05-01T22:53:01.525Z,48.19
2023-05-01T22:58:04.233Z,48.18
2023-05-01T23:03:07.285Z,48.13
2023-05-01T23:08:14.076Z,48.28
2023-05-01T23:13:19.822Z,48.17
2023-05-01T23:18:34.049Z,48.21
2023-05-01T23:23:43.875Z,48.33
2023-05-01T23:28:46.710Z,48.41
2023-05-01T23:33:49.422Z,48.36
2023-05-01T23:38:52.116Z,48.63
2023-05-01T23:43:54.834Z,48.50
2023-05-01T23:48:57.580Z,48.60
2023-05-01T23:54:00.692Z,48.75
2023-05-01T23:59:03.460Z,48.69
